createdAt,value
2023-03-14T00:00:20.248Z,98326.16
2023-03-14T00:02:46.792Z,98315.69
2023-03-14T00:05:13.292Z,98306.16
2023-03-14T00:07:40.709Z,98299.91
2023-03-14T00:10:13.400Z,98297.97
2023-03-14T00:12:40.636Z,98287.59
2023-03-14T00:15:08.825Z,98273.69
2023-03-14T00:17:36.698Z,98270.28
2023-03-14T00:20:06.484Z,98274.78
2023-03-14T00:22:33.005Z,98293.09
2023-03-14T00:24:59.420Z,98297.38
2023-03-14T00:27:25.881Z,98312.84
2023-03-14T00:29:52.328Z,98323.13
2023-03-14T00:32:19.113Z,98327.50
2023-03-14T00:34:45.647Z,98333.31
2023-03-14T00:37:12.099Z,98329.88
2023-03-14T00:39:38.534Z,98332.41
2023-03-14T00:42:05.067Z,98346.22
2023-03-14T00:44:32.744Z,98333.88
2023-03-14T00:46:59.517Z,98368.09
2023-03-14T00:49:26.010Z,98384.41
2023-03-14T00:51:53.039Z,98376.22
2023-03-14T00:54:22.680Z,98380.41
2023-03-14T00:56:49.209Z,98378.13
2023-03-14T00:59:17.076Z,98377.53
2023-03-14T01:01:43.578Z,98365.81
2023-03-14T01:04:10.100Z,98367.16
2023-03-14T01:06:36.540Z,98350.31
2023-03-14T01:09:03.782Z,98346.56
2023-03-14T01:11:32.617Z,98340.91
2023-03-14T01:13:59.920Z,98334.00
2023-03-14T01:16:29.428Z,98339.31
2023-03-14T01:18:56.115Z,98338.69
2023-03-14T01:21:28.314Z,98344.00
2023-03-14T01:23:56.598Z,98336.34
2023-03-14T01:26:26.807Z,98336.44
2023-03-14T01:28:54.933Z,98336.56
2023-03-14T01:31:21.476Z,98326.22
2023-03-14T01:33:48.202Z,98320.25
2023-03-14T01:36:14.700Z,98315.00
2023-03-14T01:38:41.515Z,98303.72
2023-03-14T01:41:12.714Z,98296.72
2023-03-14T01:43:39.164Z,98301.03
2023-03-14T01:46:05.890Z,98304.56
2023-03-14T01:48:41.506Z,98308.09
2023-03-14T01:51:13.442Z,98310.84
2023-03-14T01:53:42.438Z,98309.19
2023-03-14T01:56:13.027Z,98310.81
2023-03-14T01:58:42.621Z,98307.19
2023-03-14T02:01:10.693Z,98295.88
2023-03-14T02:03:46.447Z,98287.22
2023-03-14T02:06:15.737Z,98290.75
2023-03-14T02:08:42.214Z,98301.34
2023-03-14T02:11:09.296Z,98289.22
2023-03-14T02:13:35.751Z,98282.13
2023-03-14T02:16:02.539Z,98291.69
2023-03-14T02:18:29.059Z,98293.47
2023-03-14T02:21:09.745Z,98296.06
2023-03-14T02:24:15.421Z,98284.69
2023-03-14T02:26:46.458Z,98283.00
2023-03-14T02:29:12.959Z,98288.13
2023-03-14T02:31:39.973Z,98290.84
2023-03-14T02:34:07.232Z,98297.66
2023-03-14T02:36:33.762Z,98296.81
2023-03-14T02:39:16.923Z,98285.69
2023-03-14T02:41:46.181Z,98296.13
2023-03-14T02:44:12.921Z,98283.16
2023-03-14T02:46:39.444Z,98279.59
2023-03-14T02:49:09.381Z,98279.59
2023-03-14T02:51:36.413Z,98277.84
2023-03-14T02:54:03.568Z,98282.06
2023-03-14T02:56:30.023Z,98281.16
2023-03-14T02:58:58.629Z,98276.91
2023-03-14T03:01:25.788Z,98272.56
2023-03-14T03:03:52.310Z,98271.63
2023-03-14T03:06:18.828Z,98267.34
2023-03-14T03:08:45.296Z,98255.88
2023-03-14T03:11:11.766Z,98253.34
2023-03-14T03:13:38.220Z,98249.06
2023-03-14T03:16:05.149Z,98250.78
2023-03-14T03:18:31.765Z,98249.91
2023-03-14T03:21:01.977Z,98247.13
2023-03-14T03:23:28.453Z,98242.72
2023-03-14T03:25:54.860Z,98242.72
2023-03-14T03:28:21.340Z,98243.66
2023-03-14T03:30:48.010Z,98246.28
2023-03-14T03:33:15.405Z,98250.75
2023-03-14T03:35:49.938Z,98264.78
2023-03-14T03:38:17.065Z,98251.91
2023-03-14T03:40:44.200Z,98267.81
2023-03-14T03:43:10.762Z,98253.25
2023-03-14T03:45:37.299Z,98257.63
2023-03-14T03:48:04.005Z,98255.09
2023-03-14T03:50:30.418Z,98259.72
2023-03-14T03:52:56.904Z,98250.19
2023-03-14T03:55:23.412Z,98251.78
2023-03-14T03:57:49.885Z,98244.75
2023-03-14T04:00:16.512Z,98237.81
2023-03-14T04:02:43.184Z,98227.53
2023-03-14T04:05:09.842Z,98223.16
2023-03-14T04:07:36.290Z,98221.47
2023-03-14T04:10:02.996Z,98211.88
2023-03-14T04:12:29.471Z,98213.72
2023-03-14T04:14:55.943Z,98217.19
2023-03-14T04:17:22.840Z,98210.38
2023-03-14T04:19:52.247Z,98207.84
2023-03-14T04:22:18.721Z,98206.06
2023-03-14T04:24:45.246Z,98206.91
2023-03-14T04:27:11.753Z,98204.31
2023-03-14T04:29:38.202Z,98194.94
2023-03-14T04:32:04.826Z,98193.25
2023-03-14T04:34:31.256Z,98179.59
2023-03-14T04:36:57.700Z,98181.47
2023-03-14T04:39:24.209Z,98175.50
2023-03-14T04:41:50.668Z,98173.81
2023-03-14T04:44:17.068Z,98175.56
2023-03-14T04:46:43.676Z,98170.28
2023-03-14T04:49:10.162Z,98163.38
2023-03-14T04:51:36.580Z,98171.94
2023-03-14T04:54:03.090Z,98166.81
2023-03-14T04:56:29.594Z,98165.88
2023-03-14T04:58:56.209Z,98165.13
2023-03-14T05:01:22.796Z,98168.50
2023-03-14T05:03:49.346Z,98163.38
2023-03-14T05:06:15.837Z,98156.47
2023-03-14T05:08:42.340Z,98150.41
2023-03-14T05:11:11.586Z,98146.97
2023-03-14T05:13:39.911Z,98143.56
2023-03-14T05:16:08.790Z,98142.66
2023-03-14T05:18:35.293Z,98126.91
2023-03-14T05:21:01.882Z,98132.97
2023-03-14T05:23:28.842Z,98127.75
2023-03-14T05:25:55.369Z,98127.75
2023-03-14T05:28:21.889Z,98134.75
2023-03-14T05:30:48.373Z,98133.06
2023-03-14T05:33:15.135Z,98132.97
2023-03-14T05:35:43.225Z,98126.91
2023-03-14T05:38:09.729Z,98120.69
2023-03-14T05:40:40.355Z,98125.72
2023-03-14T05:43:08.943Z,98118.75
2023-03-14T05:45:36.303Z,98114.34
2023-03-14T05:48:02.872Z,98116.13
2023-03-14T05:50:29.434Z,98120.44
2023-03-14T05:52:55.966Z,98109.09
2023-03-14T05:55:22.407Z,98114.22
2023-03-14T05:57:48.850Z,98121.09
2023-03-14T06:00:15.824Z,98111.59
2023-03-14T06:02:42.262Z,98108.06
2023-03-14T06:05:09.009Z,98108.06
2023-03-14T06:07:35.519Z,98110.75
2023-03-14T06:10:02.190Z,98106.28
2023-03-14T06:12:29.247Z,98123.63
2023-03-14T06:14:55.756Z,98114.88
2023-03-14T06:17:22.302Z,98111.34
2023-03-14T06:19:48.782Z,98117.38
2023-03-14T06:22:15.357Z,98117.25
2023-03-14T06:24:41.901Z,98114.53
2023-03-14T06:27:08.378Z,98115.38
2023-03-14T06:29:34.879Z,98115.38
2023-03-14T06:32:01.304Z,98115.38
2023-03-14T06:34:27.819Z,98119.66
2023-03-14T06:36:54.277Z,98121.25
2023-03-14T06:39:20.769Z,98117.06
2023-03-14T06:41:47.847Z,98115.19
2023-03-14T06:44:14.345Z,98115.06
2023-03-14T06:46:40.769Z,98121.13
2023-03-14T06:49:07.209Z,98120.28
2023-03-14T06:51:34.281Z,98127.25
2023-03-14T06:54:00.701Z,98119.44
2023-03-14T06:56:27.201Z,98124.47
2023-03-14T06:58:53.774Z,98126.06
2023-03-14T07:01:28.484Z,98128.44
2023-03-14T07:03:55.164Z,98129.28
2023-03-14T07:06:22.382Z,98131.88
2023-03-14T07:08:49.089Z,98138.78
2023-03-14T07:11:15.655Z,98121.25
2023-03-14T07:13:42.109Z,98130.78
2023-03-14T07:16:09.390Z,98133.38
2023-03-14T07:18:36.049Z,98134.06
2023-03-14T07:21:02.477Z,98132.22
2023-03-14T07:23:29.006Z,98144.34
2023-03-14T07:25:55.511Z,98145.16
2023-03-14T07:28:22.167Z,98149.56
2023-03-14T07:30:48.814Z,98147.59
2023-03-14T07:33:15.483Z,98148.38
2023-03-14T07:35:43.030Z,98157.91
2023-03-14T07:38:09.542Z,98153.25
2023-03-14T07:40:35.978Z,98151.97
2023-03-14T07:43:02.403Z,98156.09
2023-03-14T07:45:28.861Z,98149.66
2023-03-14T07:47:58.370Z,98146.63
2023-03-14T07:50:26.888Z,98146.53
2023-03-14T07:52:53.473Z,98155.81
2023-03-14T07:55:20.127Z,98159.53
2023-03-14T07:57:46.642Z,98161.22
2023-03-14T08:00:16.116Z,98171.81
2023-03-14T08:02:43.155Z,98184.88
2023-03-14T08:05:10.445Z,98184.88
2023-03-14T08:07:37.146Z,98175.28
2023-03-14T08:10:04.535Z,98174.00
2023-03-14T08:12:30.957Z,98179.72
2023-03-14T08:14:57.361Z,98166.41
2023-03-14T08:17:23.833Z,98173.31
2023-03-14T08:19:50.250Z,98179.09
2023-03-14T08:22:19.746Z,98174.38
2023-03-14T08:24:46.494Z,98174.03
2023-03-14T08:27:13.028Z,98178.06
2023-03-14T08:29:41.407Z,98181.44
2023-03-14T08:32:08.084Z,98178.06
2023-03-14T08:34:35.034Z,98179.06
2023-03-14T08:37:02.769Z,98180.78
2023-03-14T08:39:30.991Z,98179.06
2023-03-14T08:41:57.426Z,98179.16
2023-03-14T08:44:23.929Z,98175.69
2023-03-14T08:46:50.475Z,98178.31
2023-03-14T08:49:17.013Z,98178.06
2023-03-14T08:51:43.482Z,98186.75
2023-03-14T08:54:13.167Z,98184.22
2023-03-14T08:56:39.829Z,98187.84
2023-03-14T08:59:06.557Z,98186.31
2023-03-14T09:01:33.295Z,98191.53
2023-03-14T09:03:59.868Z,98193.41
2023-03-14T09:06:26.393Z,98191.91
2023-03-14T09:08:52.823Z,98205.44
2023-03-14T09:11:19.669Z,98214.31
2023-03-14T09:13:46.143Z,98230.22
2023-03-14T09:16:12.688Z,98236.28
2023-03-14T09:18:39.168Z,98226.88
2023-03-14T09:21:06.241Z,98242.53
2023-03-14T09:23:32.901Z,98248.63
2023-03-14T09:26:00.412Z,98255.78
2023-03-14T09:28:28.576Z,98257.22
2023-03-14T09:30:55.522Z,98310.72
2023-03-14T09:33:22.877Z,98329.22
2023-03-14T09:35:49.460Z,98358.38
2023-03-14T09:38:17.346Z,98387.53
2023-03-14T09:40:43.829Z,98375.72
2023-03-14T09:43:15.031Z,98409.53
2023-03-14T09:45:44.052Z,98402.06
2023-03-14T09:48:17.529Z,98413.75
2023-03-14T09:50:47.479Z,98433.88
2023-03-14T09:53:17.767Z,98428.13
2023-03-14T09:55:49.477Z,98449.03
2023-03-14T09:58:24.520Z,98459.44
2023-03-14T10:00:54.817Z,98453.59
2023-03-14T10:03:21.254Z,98459.84
2023-03-14T10:05:47.972Z,98469.25
2023-03-14T10:08:14.938Z,98469.31
2023-03-14T10:10:41.815Z,98489.09
2023-03-14T10:13:14.286Z,98493.31
2023-03-14T10:15:41.093Z,98493.28
2023-03-14T10:18:13.786Z,98505.44
2023-03-14T10:20:43.505Z,98517.19
2023-03-14T10:23:27.983Z,98542.41
2023-03-14T10:26:13.586Z,98526.94
2023-03-14T10:28:47.856Z,98553.75
2023-03-14T10:31:15.838Z,98557.44
2023-03-14T10:33:43.078Z,98571.22
2023-03-14T10:36:24.060Z,98596.19
2023-03-14T10:38:50.786Z,98585.75
2023-03-14T10:41:24.671Z,98602.34
2023-03-14T10:43:54.636Z,98614.44
2023-03-14T10:46:21.725Z,98620.75
2023-03-14T10:48:50.632Z,98633.75
2023-03-14T10:51:16.999Z,98628.56
2023-03-14T10:53:50.530Z,98638.00
2023-03-14T10:56:22.529Z,98651.34
2023-03-14T10:58:51.266Z,98668.94
2023-03-14T11:01:23.739Z,98687.41
2023-03-14T11:04:15.323Z,98707.72
2023-03-14T11:07:05.313Z,98710.66
2023-03-14T11:09:53.831Z,98729.84
2023-03-14T11:12:51.316Z,98741.47
2023-03-14T11:15:32.013Z,98757.19
2023-03-14T11:18:35.942Z,98759.97
2023-03-14T11:21:22.697Z,98794.69
2023-03-14T11:24:09.091Z,98779.75
2023-03-14T11:26:45.777Z,98800.59
2023-03-14T11:29:41.486Z,98804.25
2023-03-14T11:32:20.423Z,98831.03
2023-03-14T11:34:53.898Z,98826.72
2023-03-14T11:37:29.653Z,98840.31
2023-03-14T11:40:19.042Z,98845.53
2023-03-14T11:42:52.015Z,98849.94
2023-03-14T11:45:23.862Z,98871.81
2023-03-14T11:48:21.031Z,98877.38
2023-03-14T11:50:51.782Z,98874.78
2023-03-14T11:53:24.408Z,98886.81
2023-03-14T11:55:52.251Z,98890.22
2023-03-14T11:58:24.333Z,98893.53
2023-03-14T12:00:54.476Z,98909.13
2023-03-14T12:03:39.615Z,98913.84
2023-03-14T12:06:36.819Z,98921.59
2023-03-14T12:09:05.122Z,98929.94
2023-03-14T12:11:34.436Z,98937.63
2023-03-14T12:14:02.096Z,98950.56
2023-03-14T12:16:35.718Z,98963.19
2023-03-14T12:19:23.593Z,98973.88
2023-03-14T12:21:58.730Z,98987.03
2023-03-14T12:24:33.367Z,99011.41
2023-03-14T12:27:03.703Z,99003.19
2023-03-14T12:29:33.555Z,99036.06
2023-03-14T12:32:25.515Z,99030.75
2023-03-14T12:34:52.572Z,99036.41
2023-03-14T12:37:36.357Z,99046.47
2023-03-14T12:40:18.516Z,99064.97
2023-03-14T12:42:59.160Z,99053.97
2023-03-14T12:45:28.624Z,99056.09
2023-03-14T12:48:08.248Z,99074.09
2023-03-14T12:50:55.277Z,99085.56
2023-03-14T12:53:51.164Z,99091.88
2023-03-14T12:56:47.495Z,99102.16
2023-03-14T12:59:36.677Z,99113.66
2023-03-14T13:02:24.241Z,99152.50
2023-03-14T13:05:13.354Z,99154.69
2023-03-14T13:07:48.819Z,99164.66
2023-03-14T13:10:23.770Z,99175.78
2023-03-14T13:13:28.682Z,99179.28
2023-03-14T13:16:01.363Z,99192.31
2023-03-14T13:18:48.617Z,99185.72
2023-03-14T13:21:21.197Z,99186.38
2023-03-14T13:23:59.812Z,99206.97
2023-03-14T13:26:43.497Z,99210.31
2023-03-14T13:29:26.919Z,99217.19
2023-03-14T13:31:55.888Z,99230.13
2023-03-14T13:34:22.396Z,99232.03
2023-03-14T13:36:53.030Z,99228.78
2023-03-14T13:39:27.349Z,99238.47
2023-03-14T13:41:55.928Z,99259.28
2023-03-14T13:44:30.618Z,99282.22
2023-03-14T13:46:59.965Z,99314.59
2023-03-14T13:49:27.732Z,99313.94
2023-03-14T13:51:54.239Z,99306.50
2023-03-14T13:54:22.721Z,99311.63
2023-03-14T13:56:59.682Z,99307.44
2023-03-14T13:59:30.975Z,99311.81
2023-03-14T14:02:00.660Z,99309.09
2023-03-14T14:04:27.985Z,99304.47
2023-03-14T14:07:00.276Z,99308.66
2023-03-14T14:09:53.686Z,99311.75
2023-03-14T14:12:44.824Z,99322.69
2023-03-14T14:15:25.296Z,99317.91
2023-03-14T14:18:07.546Z,99327.94
2023-03-14T14:20:39.996Z,99324.25
2023-03-14T14:23:11.724Z,99313.34
2023-03-14T14:25:38.754Z,99328.09
2023-03-14T14:28:31.184Z,99328.94
2023-03-14T14:31:20.891Z,99335.09
2023-03-14T14:33:51.623Z,99342.88
2023-03-14T14:36:20.568Z,99340.34
2023-03-14T14:38:57.961Z,99345.34
2023-03-14T14:41:29.847Z,99347.91
2023-03-14T14:43:56.998Z,99373.81
2023-03-14T14:46:23.635Z,99368.38
2023-03-14T14:48:52.550Z,99410.00
2023-03-14T14:51:31.800Z,99403.72
2023-03-14T14:54:12.316Z,99434.94
2023-03-14T14:56:39.235Z,99431.47
2023-03-14T14:59:08.324Z,99463.59
2023-03-14T15:01:41.057Z,99464.50
2023-03-14T15:04:14.616Z,99473.28
2023-03-14T15:06:45.269Z,99494.16
2023-03-14T15:09:12.498Z,99501.06
2023-03-14T15:11:39.079Z,99510.66
2023-03-14T15:14:07.710Z,99515.09
2023-03-14T15:16:35.372Z,99522.91
2023-03-14T15:19:21.506Z,99519.41
2023-03-14T15:21:50.658Z,99528.91
2023-03-14T15:24:17.143Z,99537.47
2023-03-14T15:26:45.396Z,99537.44
2023-03-14T15:29:13.483Z,99546.94
2023-03-14T15:31:41.395Z,99559.06
2023-03-14T15:34:07.955Z,99565.97
2023-03-14T15:36:36.369Z,99563.38
2023-03-14T15:39:04.805Z,99579.06
2023-03-14T15:41:31.260Z,99583.53
2023-03-14T15:43:57.818Z,99591.44
2023-03-14T15:46:24.417Z,99593.25
2023-03-14T15:48:52.474Z,99604.59
2023-03-14T15:51:19.685Z,99603.81
2023-03-14T15:53:46.210Z,99614.31
2023-03-14T15:56:18.624Z,99621.25
2023-03-14T15:58:48.846Z,99618.72
2023-03-14T16:01:19.279Z,99631.75
2023-03-14T16:03:46.131Z,99628.31
2023-03-14T16:06:13.408Z,99639.66
2023-03-14T16:08:39.946Z,99642.31
2023-03-14T16:11:06.475Z,99655.38
2023-03-14T16:13:33.373Z,99659.81
2023-03-14T16:16:05.366Z,99664.13
2023-03-14T16:18:38.285Z,99671.09
2023-03-14T16:21:12.173Z,99681.59
2023-03-14T16:23:39.363Z,99686.78
2023-03-14T16:26:13.251Z,99693.78
2023-03-14T16:28:40.277Z,99705.91
2023-03-14T16:31:09.940Z,99711.19
2023-03-14T16:33:37.548Z,99723.31
2023-03-14T16:36:08.498Z,99731.94
2023-03-14T16:38:36.805Z,99746.69
2023-03-14T16:41:10.826Z,99749.34
2023-03-14T16:43:37.687Z,99752.03
2023-03-14T16:46:05.979Z,99765.00
2023-03-14T16:48:33.219Z,99757.31
2023-03-14T16:50:59.924Z,99764.25
2023-03-14T16:53:29.141Z,99766.06
2023-03-14T16:55:56.500Z,99776.53
2023-03-14T16:58:23.152Z,99778.34
2023-03-14T17:00:49.747Z,99779.28
2023-03-14T17:03:17.599Z,99781.06
2023-03-14T17:05:48.960Z,99795.75
2023-03-14T17:08:16.498Z,99811.31
2023-03-14T17:10:43.059Z,99804.41
2023-03-14T17:13:10.184Z,99815.75
2023-03-14T17:15:36.925Z,99825.28
2023-03-14T17:18:03.698Z,99826.16
2023-03-14T17:20:30.467Z,99836.59
2023-03-14T17:22:57.048Z,99847.91
2023-03-14T17:25:23.575Z,99848.78
2023-03-14T17:27:50.032Z,99848.81
2023-03-14T17:30:16.764Z,99866.16
2023-03-14T17:32:43.233Z,99870.50
2023-03-14T17:35:09.746Z,99883.53
2023-03-14T17:37:36.293Z,99889.59
2023-03-14T17:40:04.247Z,99903.44
2023-03-14T17:42:31.319Z,99908.66
2023-03-14T17:44:58.664Z,99913.88
2023-03-14T17:47:25.092Z,99929.53
2023-03-14T17:49:51.544Z,99919.16
2023-03-14T17:52:18.006Z,99934.75
2023-03-14T17:54:44.615Z,99938.22
2023-03-14T17:57:11.708Z,99946.09
2023-03-14T17:59:38.173Z,99962.50
2023-03-14T18:02:05.357Z,99959.06
2023-03-14T18:04:31.922Z,99960.88
2023-03-14T18:06:58.399Z,99966.09
2023-03-14T18:09:24.913Z,99966.09
2023-03-14T18:11:58.766Z,99982.56
2023-03-14T18:14:28.569Z,99999.84
2023-03-14T18:16:55.124Z,99998.16
2023-03-14T18:19:21.827Z,99999.91
2023-03-14T18:21:48.480Z,100015.47
2023-03-14T18:24:14.936Z,100014.69
2023-03-14T18:26:41.445Z,100022.47
2023-03-14T18:29:07.882Z,100020.78
2023-03-14T18:31:34.982Z,100040.66
2023-03-14T18:34:01.963Z,100034.59
2023-03-14T18:36:28.519Z,100033.81
2023-03-14T18:38:56.769Z,100037.28
2023-03-14T18:41:24.642Z,100046.81
2023-03-14T18:43:52.889Z,100048.59
2023-03-14T18:46:23.383Z,100056.41
2023-03-14T18:48:56.382Z,100062.44
2023-03-14T18:51:25.903Z,100071.97
2023-03-14T18:53:56.495Z,100069.41
2023-03-14T18:56:29.685Z,100080.63
2023-03-14T18:58:56.256Z,100083.22
2023-03-14T19:01:22.893Z,100084.13
2023-03-14T19:03:49.400Z,100083.25
2023-03-14T19:06:18.056Z,100085.03
2023-03-14T19:08:44.516Z,100095.41
2023-03-14T19:11:13.041Z,100107.50
2023-03-14T19:13:40.146Z,100107.53
2023-03-14T19:16:10.460Z,100105.81
2023-03-14T19:18:37.106Z,100116.22
2023-03-14T19:21:06.495Z,100121.41
2023-03-14T19:23:34.980Z,100125.72
2023-03-14T19:26:02.947Z,100132.63
2023-03-14T19:28:29.825Z,100138.66
2023-03-14T19:30:56.234Z,100142.13
2023-03-14T19:33:22.726Z,100141.28
2023-03-14T19:35:49.239Z,100151.66
2023-03-14T19:38:18.137Z,100159.47
2023-03-14T19:40:47.846Z,100162.06
2023-03-14T19:43:14.272Z,100166.41
2023-03-14T19:45:42.653Z,100162.06
2023-03-14T19:48:12.608Z,100162.91
2023-03-14T19:50:39.318Z,100179.34
2023-03-14T19:53:08.187Z,100183.69
2023-03-14T19:55:35.298Z,100175.91
2023-03-14T19:58:01.786Z,100177.66
2023-03-14T20:00:28.422Z,100182.00
2023-03-14T20:02:55.340Z,100187.16
2023-03-14T20:05:23.619Z,100190.63
2023-03-14T20:07:50.845Z,100195.81
2023-03-14T20:10:19.907Z,100202.72
2023-03-14T20:12:46.580Z,100205.31
2023-03-14T20:15:18.300Z,100209.63
2023-03-14T20:17:48.965Z,100213.13
2023-03-14T20:20:16.128Z,100212.25
2023-03-14T20:22:42.947Z,100227.81
2023-03-14T20:25:12.894Z,100226.94
2023-03-14T20:27:40.326Z,100220.03
2023-03-14T20:30:12.557Z,100219.16
2023-03-14T20:32:40.566Z,100230.44
2023-03-14T20:35:12.197Z,100226.94
2023-03-14T20:37:39.404Z,100238.19
2023-03-14T20:40:08.325Z,100233.88
2023-03-14T20:42:35.029Z,100239.91
2023-03-14T20:45:01.696Z,100243.38
2023-03-14T20:47:28.331Z,100239.91
2023-03-14T20:49:54.748Z,100240.81
2023-03-14T20:52:22.585Z,100248.56
2023-03-14T20:54:49.060Z,100247.69
2023-03-14T20:57:18.807Z,100249.44
2023-03-14T20:59:45.387Z,100246.81
2023-03-14T21:02:12.210Z,100249.41
2023-03-14T21:04:38.931Z,100249.41
2023-03-14T21:07:05.525Z,100248.56
2023-03-14T21:09:31.960Z,100257.19
2023-03-14T21:11:58.381Z,100252.00
2023-03-14T21:14:24.962Z,100264.94
2023-03-14T21:16:57.033Z,100258.06
2023-03-14T21:19:30.323Z,100260.59
2023-03-14T21:21:58.352Z,100257.16
2023-03-14T21:24:28.844Z,100265.78
2023-03-14T21:26:55.928Z,100277.03
2023-03-14T21:29:23.151Z,100270.97
2023-03-14T21:31:50.333Z,100277.00
2023-03-14T21:34:17.733Z,100280.44
2023-03-14T21:36:44.171Z,100280.44
2023-03-14T21:39:10.813Z,100283.03
2023-03-14T21:41:37.368Z,100283.88
2023-03-14T21:44:03.854Z,100281.28
2023-03-14T21:46:30.571Z,100283.84
2023-03-14T21:48:57.126Z,100276.97
2023-03-14T21:51:29.911Z,100276.94
2023-03-14T21:53:56.652Z,100282.09
2023-03-14T21:56:26.915Z,100282.09
2023-03-14T21:58:59.181Z,100289.88
2023-03-14T22:01:25.942Z,100295.03
2023-03-14T22:03:53.567Z,100296.78
2023-03-14T22:06:20.468Z,100302.81
2023-03-14T22:08:47.071Z,100304.53
2023-03-14T22:11:13.533Z,100301.09
2023-03-14T22:13:40.427Z,100309.72
2023-03-14T22:16:07.973Z,100312.25
2023-03-14T22:18:37.477Z,100305.38
2023-03-14T22:21:04.218Z,100313.13
2023-03-14T22:23:30.677Z,100316.56
2023-03-14T22:25:57.130Z,100316.56
2023-03-14T22:28:23.530Z,100316.53
2023-03-14T22:30:51.407Z,100320.00
2023-03-14T22:33:19.124Z,100312.25
2023-03-14T22:35:50.254Z,100318.25
2023-03-14T22:38:17.175Z,100318.25
2023-03-14T22:40:43.618Z,100312.22
2023-03-14T22:43:10.269Z,100316.53
2023-03-14T22:45:36.724Z,100328.59
2023-03-14T22:48:03.517Z,100334.66
2023-03-14T22:50:31.105Z,100323.44
2023-03-14T22:52:58.880Z,100330.34
2023-03-14T22:55:25.475Z,100332.91
2023-03-14T22:57:53.007Z,100331.19
2023-03-14T23:00:20.394Z,100326.91
2023-03-14T23:02:46.926Z,100338.09
2023-03-14T23:05:13.433Z,100336.38
2023-03-14T23:07:42.645Z,100340.69
2023-03-14T23:10:10.491Z,100340.69
2023-03-14T23:12:36.912Z,100341.53
2023-03-14T23:15:06.207Z,100346.72
2023-03-14T23:17:33.758Z,100351.88
2023-03-14T23:20:00.200Z,100348.44
2023-03-14T23:22:27.928Z,100345.84
2023-03-14T23:24:54.375Z,100350.16
2023-03-14T23:27:21.578Z,100350.16
2023-03-14T23:29:51.318Z,100345.84
2023-03-14T23:32:17.744Z,100341.53
2023-03-14T23:34:44.465Z,100349.31
2023-03-14T23:37:14.794Z,100340.69
2023-03-14T23:39:44.586Z,100344.13
2023-03-14T23:42:11.475Z,100342.41
2023-03-14T23:44:37.944Z,100339.81
2023-03-14T23:47:04.633Z,100337.22
2023-03-14T23:49:31.150Z,100345.84
2023-03-14T23:51:57.633Z,100345.84
2023-03-14T23:54:24.018Z,100346.72
2023-03-14T23:56:50.632Z,100351.03
2023-03-14T23:59:17.221Z,100360.50
